Nichioh Maru — JD3267 — position and weather

sailwx.info

Track history (hours):
 
Tides and Currents Weather Stations Pressure Air Temp Water Temp Dewpoint Dewpoint Depression Visibility Wind Speed Wind Dir Waves Ship Positions

Nichioh Maru

Last reported at 2017-Sep-22 02:00 UTC. Time now 2017-Sep-23 20:02 UTC.
Position N 35°05' E 139°43'.

Length 170 m; draft 6.5 m.

Type: Cargo ship. MMSI: 431003232.

Date/timePositionNaut miles runAvg speedWind from/ knotsBaromVisibWave heightAir tempDewpointWater temp
2017-Sep-22 02:00N 35°05' E 139°43'1121.4
2017-Sep-22 01:30N 34°57' E 139°34'1223.4
2017-Sep-22 00:59N 34°50' E 139°22'22117.8
2017-Sep-21 12:35N 34°06' E 134°59'221.0
2017-Sep-21 12:30N 34°08' E 134°59'1020.5
2017-Sep-21 12:00N 34°18' E 134°59'1020.3
2017-Sep-21 11:30N 34°28' E 135°02'917.2
2017-Sep-21 11:00N 34°37' E 135°01'  
2017-Sep-18 17:25N 34°35' E 134°54'615.3
2017-Sep-18 17:00N 34°37' E 135°01'713.2
2017-Sep-18 16:30N 34°31' E 135°05'814.6
2017-Sep-18 15:59N 34°24' E 135°03'713.8
2017-Sep-18 15:28N 34°17' E 134°59'714.6
2017-Sep-18 15:00N 34°10' E 135°00'815.3
2017-Sep-18 14:30N 34°03' E 135°01'227 4.4
2017-Sep-16 10:31N 34°58' E 139°28'713.6
2017-Sep-16 10:00N 35°03' E 139°35'815.7
2017-Sep-16 09:30N 35°07' E 139°43'714.8
2017-Sep-16 09:00N 35°14' E 139°46'713.2
2017-Sep-16 08:31N 35°20' E 139°43'816.7
2017-Sep-16 08:01N 35°28' E 139°46'3 5.1
2017-Sep-16 07:28N 35°30' E 139°46'0 0.0
2017-Sep-16 06:58N 35°30' E 139°46'0 0.0
2017-Sep-16 06:28N 35°30' E 139°46'0 0.0
2017-Sep-16 05:58N 35°30' E 139°46'0 0.0
2017-Sep-16 05:28N 35°30' E 139°46'0 0.0
2017-Sep-16 04:58N 35°30' E 139°46'0 0.0
2017-Sep-16 04:28N 35°30' E 139°46'0 0.0
2017-Sep-16 03:58N 35°30' E 139°46'1 1.2
2017-Sep-16 03:31N 35°30' E 139°45'4 8.2
2017-Sep-16 03:00N 35°26' E 139°44'510.7
2017-Sep-16 02:30N 35°21' E 139°45'5 9.9
2017-Sep-16 01:59N 35°19' E 139°39'0 0.0
2017-Sep-16 01:29N 35°19' E 139°39'0 0.0
2017-Sep-16 00:59N 35°19' E 139°39'0 0.0
2017-Sep-16 00:29N 35°19' E 139°39'0 0.0
2017-Sep-15 23:59N 35°19' E 139°39'0 0.0
2017-Sep-15 23:29N 35°19' E 139°39'0 0.0
2017-Sep-15 22:59N 35°19' E 139°39'0 0.0
2017-Sep-15 22:29N 35°19' E 139°39'0 0.0
2017-Sep-15 21:59N 35°19' E 139°39'0 0.0
2017-Sep-15 21:29N 35°19' E 139°39'1 2.4
2017-Sep-15 21:00N 35°19' E 139°40'1 1.5
2017-Sep-15 20:30N 35°20' E 139°41'0 0.1
2017-Sep-15 20:00N 35°20' E 139°41'0 0.1
2017-Sep-15 19:30N 35°20' E 139°41'0 0.1
2017-Sep-15 18:54N 35°20' E 139°41'0 0.1
2017-Sep-15 18:30N 35°20' E 139°41'0 0.0
2017-Sep-15 18:00N 35°20' E 139°41'0 0.0
2017-Sep-15 17:30N 35°20' E 139°41'0 0.0
2017-Sep-15 17:00N 35°20' E 139°41'0 0.2
2017-Sep-15 16:30N 35°20' E 139°41'0 0.0
2017-Sep-15 16:00N 35°19' E 139°41'0 0.0
2017-Sep-15 15:30N 35°20' E 139°41'0 0.0
2017-Sep-15 15:00N 35°19' E 139°41'0 0.1
2017-Sep-15 14:30N 35°20' E 139°41'0 0.0
2017-Sep-15 14:00N 35°20' E 139°41'0 0.0
2017-Sep-15 13:30N 35°20' E 139°41'0 0.0
2017-Sep-15 13:00N 35°20' E 139°41'0 0.0
2017-Sep-15 12:30N 35°20' E 139°41'0 0.0
2017-Sep-15 12:00N 35°20' E 139°41'0 0.1
2017-Sep-15 11:30N 35°20' E 139°41'0 0.0
2017-Sep-15 11:00N 35°19' E 139°41'0 0.1
2017-Sep-15 10:30N 35°19' E 139°41'0 0.1
2017-Sep-15 10:00N 35°20' E 139°41'510.4
2017-Sep-15 09:30N 35°25' E 139°42'1 2.1
2017-Sep-15 08:58N 35°25' E 139°41'0 0.0
2017-Sep-15 08:28N 35°25' E 139°41'0 0.0
2017-Sep-15 07:58N 35°25' E 139°41'0 0.0
2017-Sep-15 07:28N 35°25' E 139°41'0 0.0
2017-Sep-15 06:58N 35°25' E 139°41'0 0.0
2017-Sep-15 06:28N 35°25' E 139°41'0 0.0
2017-Sep-15 06:00N 35°25' E 139°41'1 2.9
2017-Sep-15 05:30N 35°24' E 139°42'4 8.0
2017-Sep-15 05:00N 35°20' E 139°43'611.0
2017-Sep-15 04:31N 35°16' E 139°46'612.5
2017-Sep-15 04:01N 35°09' E 139°46'815.1
2017-Sep-15 03:31N 35°03' E 139°41'816.0
2017-Sep-15 03:01N 34°57' E 139°34'23314.3
2017-Sep-14 10:38N 34°00' E 134°60'318.4
2017-Sep-14 10:30N 34°03' E 134°59'918.2
2017-Sep-14 10:01N 34°12' E 134°59'1118.0
2017-Sep-14 09:25N 34°23' E 135°00'718.6
2017-Sep-14 09:00N 34°30' E 135°02'814.5
2017-Sep-14 08:29N 34°37' E 134°59'  
Track history (hours):
 
Tides and Currents Weather Stations Pressure Air Temp Water Temp Dewpoint Dewpoint Depression Visibility Wind Speed Wind Dir Waves Ship Positions

Nichioh Maru

Last reported at 2017-Sep-22 02:00 UTC. Time now 2017-Sep-23 20:02 UTC.
Position N 35°05' E 139°43'.

Length 170 m; draft 6.5 m.

Type: Cargo ship. MMSI: 431003232.

Date/timePositionNaut miles runAvg speedWind from/ knotsBaromVisibWave heightAir tempDewpointWater temp
2017-Sep-22 02:00N 35°05' E 139°43'1121.4
2017-Sep-22 01:30N 34°57' E 139°34'1223.4
2017-Sep-22 00:59N 34°50' E 139°22'22117.8
2017-Sep-21 12:35N 34°06' E 134°59'221.0
2017-Sep-21 12:30N 34°08' E 134°59'1020.5
2017-Sep-21 12:00N 34°18' E 134°59'1020.3
2017-Sep-21 11:30N 34°28' E 135°02'917.2
2017-Sep-21 11:00N 34°37' E 135°01'  
2017-Sep-18 17:25N 34°35' E 134°54'615.3
2017-Sep-18 17:00N 34°37' E 135°01'713.2
2017-Sep-18 16:30N 34°31' E 135°05'814.6
2017-Sep-18 15:59N 34°24' E 135°03'713.8
2017-Sep-18 15:28N 34°17' E 134°59'714.6
2017-Sep-18 15:00N 34°10' E 135°00'815.3
2017-Sep-18 14:30N 34°03' E 135°01'227 4.4
2017-Sep-16 10:31N 34°58' E 139°28'713.6
2017-Sep-16 10:00N 35°03' E 139°35'815.7
2017-Sep-16 09:30N 35°07' E 139°43'714.8
2017-Sep-16 09:00N 35°14' E 139°46'713.2
2017-Sep-16 08:31N 35°20' E 139°43'816.7
2017-Sep-16 08:01N 35°28' E 139°46'3 5.1
2017-Sep-16 07:28N 35°30' E 139°46'0 0.0
2017-Sep-16 06:58N 35°30' E 139°46'0 0.0
2017-Sep-16 06:28N 35°30' E 139°46'0 0.0
2017-Sep-16 05:58N 35°30' E 139°46'0 0.0
2017-Sep-16 05:28N 35°30' E 139°46'0 0.0
2017-Sep-16 04:58N 35°30' E 139°46'0 0.0
2017-Sep-16 04:28N 35°30' E 139°46'0 0.0
2017-Sep-16 03:58N 35°30' E 139°46'1 1.2
2017-Sep-16 03:31N 35°30' E 139°45'4 8.2
2017-Sep-16 03:00N 35°26' E 139°44'510.7
2017-Sep-16 02:30N 35°21' E 139°45'5 9.9
2017-Sep-16 01:59N 35°19' E 139°39'0 0.0
2017-Sep-16 01:29N 35°19' E 139°39'0 0.0
2017-Sep-16 00:59N 35°19' E 139°39'0 0.0
2017-Sep-16 00:29N 35°19' E 139°39'0 0.0
2017-Sep-15 23:59N 35°19' E 139°39'0 0.0
2017-Sep-15 23:29N 35°19' E 139°39'0 0.0
2017-Sep-15 22:59N 35°19' E 139°39'0 0.0
2017-Sep-15 22:29N 35°19' E 139°39'0 0.0
2017-Sep-15 21:59N 35°19' E 139°39'0 0.0
2017-Sep-15 21:29N 35°19' E 139°39'1 2.4
2017-Sep-15 21:00N 35°19' E 139°40'1 1.5
2017-Sep-15 20:30N 35°20' E 139°41'0 0.1
2017-Sep-15 20:00N 35°20' E 139°41'0 0.1
2017-Sep-15 19:30N 35°20' E 139°41'0 0.1
2017-Sep-15 18:54N 35°20' E 139°41'0 0.1
2017-Sep-15 18:30N 35°20' E 139°41'0 0.0
2017-Sep-15 18:00N 35°20' E 139°41'0 0.0
2017-Sep-15 17:30N 35°20' E 139°41'0 0.0
2017-Sep-15 17:00N 35°20' E 139°41'0 0.2
2017-Sep-15 16:30N 35°20' E 139°41'0 0.0
2017-Sep-15 16:00N 35°19' E 139°41'0 0.0
2017-Sep-15 15:30N 35°20' E 139°41'0 0.0
2017-Sep-15 15:00N 35°19' E 139°41'0 0.1
2017-Sep-15 14:30N 35°20' E 139°41'0 0.0
2017-Sep-15 14:00N 35°20' E 139°41'0 0.0
2017-Sep-15 13:30N 35°20' E 139°41'0 0.0
2017-Sep-15 13:00N 35°20' E 139°41'0 0.0
2017-Sep-15 12:30N 35°20' E 139°41'0 0.0
2017-Sep-15 12:00N 35°20' E 139°41'0 0.1
2017-Sep-15 11:30N 35°20' E 139°41'0 0.0
2017-Sep-15 11:00N 35°19' E 139°41'0 0.1
2017-Sep-15 10:30N 35°19' E 139°41'0 0.1
2017-Sep-15 10:00N 35°20' E 139°41'510.4
2017-Sep-15 09:30N 35°25' E 139°42'1 2.1
2017-Sep-15 08:58N 35°25' E 139°41'0 0.0
2017-Sep-15 08:28N 35°25' E 139°41'0 0.0
2017-Sep-15 07:58N 35°25' E 139°41'0 0.0
2017-Sep-15 07:28N 35°25' E 139°41'0 0.0
2017-Sep-15 06:58N 35°25' E 139°41'0 0.0
2017-Sep-15 06:28N 35°25' E 139°41'0 0.0
2017-Sep-15 06:00N 35°25' E 139°41'1 2.9
2017-Sep-15 05:30N 35°24' E 139°42'4 8.0
2017-Sep-15 05:00N 35°20' E 139°43'611.0
2017-Sep-15 04:31N 35°16' E 139°46'612.5
2017-Sep-15 04:01N 35°09' E 139°46'815.1
2017-Sep-15 03:31N 35°03' E 139°41'816.0
2017-Sep-15 03:01N 34°57' E 139°34'23314.3
2017-Sep-14 10:38N 34°00' E 134°60'318.4
2017-Sep-14 10:30N 34°03' E 134°59'918.2
2017-Sep-14 10:01N 34°12' E 134°59'1118.0
2017-Sep-14 09:25N 34°23' E 135°00'718.6
2017-Sep-14 09:00N 34°30' E 135°02'814.5
2017-Sep-14 08:29N 34°37' E 134°59'  

Dump ship's entire track history